Time;durP1;ratioP1;P1;durP2;ratioP2;P2;SDS_P1;SDS_P2;PMS_P1;PMS_P2;Temp;Humidity;BMP_temperature;BMP_pressure;BME280_temperature;BME280_humidity;BME280_pressure;Samples;Min_cycle;Max_cycle;Signal;HPM_P1;HPM_P2
2022/02/06 00:02:33;;;;;;;59.20;40.73;;;;;;;6.19;59.28;100078.59;6308633;22;19999;-92
2022/02/06 00:04:58;;;;;;;60.13;42.07;;;;;;;6.02;59.37;100046.03;6281554;22;19995;-92
2022/02/06 00:07:23;;;;;;;61.23;43.10;;;;;;;5.87;59.21;100005.41;6308862;22;20032;-90
2022/02/06 00:09:49;;;;;;;62.80;42.70;;;;;;;5.06;59.17;99881.63;6281465;22;19999;-90
2022/02/06 00:12:15;;;;;;;61.23;42.17;;;;;;;5.92;59.48;100014.53;6281335;22;20025;-92
2022/02/06 00:14:41;;;;;;;58.80;41.67;;;;;;;6.34;59.41;100080.69;6308672;22;20500;-91
2022/02/06 00:17:08;;;;;;;64.33;44.20;;;;;;;6.34;59.14;100095.59;6282436;22;20003;-92
2022/02/06 00:19:34;;;;;;;60.87;42.23;;;;;;;5.92;59.21;100034.69;6326310;22;19995;-88
2022/02/06 00:22:02;;;;;;;63.40;44.57;;;;;;;5.82;59.56;100013.66;6338322;22;20023;-90
2022/02/06 00:24:38;;;;;;;59.23;43.17;;;;;;;6.12;59.37;100075.69;6334975;22;19991;-92
2022/02/06 00:27:08;;;;;;;58.90;41.13;;;;;;;5.67;59.50;99984.41;6283498;22;20411;-92
2022/02/06 00:32:09;;;;;;;59.35;40.65;;;;;;;5.78;59.23;100001.81;6311023;22;20003;-92
2022/02/06 00:39:48;;;;;;;52.60;38.87;;;;;;;5.37;59.49;99994.97;6307487;22;20474;-92
2022/02/06 00:42:13;;;;;;;59.47;40.67;;;;;;;5.72;59.78;100018.06;6280162;22;19999;-92
2022/02/06 00:44:39;;;;;;;60.60;40.97;;;;;;;6.23;59.68;100104.41;6280038;22;20451;-92
2022/02/06 00:47:04;;;;;;;53.10;38.87;;;;;;;6.05;59.84;100090.31;6279576;22;20049;-92
2022/02/06 00:49:31;;;;;;;55.77;40.57;;;;;;;5.64;59.73;100021.38;6279531;22;19996;-92
2022/02/06 00:54:25;;;;;;;52.40;39.17;;;;;;;5.95;60.02;100086.84;6307401;22;20000;-90
2022/02/06 00:56:50;;;;;;;51.97;36.77;;;;;;;5.49;59.98;100003.53;6279843;22;20095;-92
2022/02/06 00:59:16;;;;;;;46.97;35.63;;;;;;;5.52;59.81;100019.81;6279514;22;19999;-92
2022/02/06 01:01:42;;;;;;;54.40;35.90;;;;;;;5.50;60.35;100019.13;6306737;22;19999;-92
2022/02/06 01:04:09;;;;;;;52.30;37.57;;;;;;;5.57;60.29;100028.09;6279443;22;20030;-92
2022/02/06 01:06:35;;;;;;;48.53;35.13;;;;;;;5.70;60.12;100062.75;6279552;22;20010;-92
2022/02/06 01:09:00;;;;;;;48.83;35.23;;;;;;;6.12;60.14;100117.66;6279468;22;20360;-92
2022/02/06 01:11:26;;;;;;;55.43;40.73;;;;;;;5.32;60.09;99987.53;6306890;22;19987;-91
2022/02/06 01:16:37;;;;;;;61.20;42.70;;;;;;;5.50;60.29;100034.84;6307233;22;19999;-92
2022/02/06 01:19:19;;;;;;;54.13;39.77;;;;;;;4.81;60.67;99914.31;6279539;22;19999;-92
2022/02/06 01:24:49;;;;;;;50.30;35.37;;;;;;;4.29;60.80;99882.13;6280316;22;20025;-92
2022/02/06 01:27:20;;;;;;;50.67;35.27;;;;;;;5.82;60.96;100084.41;6279664;22;20007;-92
2022/02/06 01:29:57;;;;;;;48.27;33.53;;;;;;;5.13;60.40;99979.56;6279667;22;20550;-92
2022/02/06 01:32:29;;;;;;;47.03;34.90;;;;;;;5.81;60.58;100098.47;6279312;22;20015;-92
2022/02/06 01:35:01;;;;;;;47.80;35.07;;;;;;;5.60;60.68;100069.75;6280022;22;20031;-92
2022/02/06 01:37:35;;;;;;;47.93;35.97;;;;;;;5.69;61.03;100065.50;6280125;22;20010;-91
2022/02/06 01:40:16;;;;;;;48.67;35.10;;;;;;;4.43;60.95;99868.72;6279820;22;19999;-92
2022/02/06 01:42:53;;;;;;;42.90;29.47;;;;;;;5.37;60.82;100027.22;6306662;22;20010;-92
2022/02/06 02:04:34;;;;;;;38.83;27.07;;;;;;;4.82;61.20;99944.75;6307166;22;20073;-92
2022/02/06 02:32:00;;;;;;;30.43;22.03;;;;;;;5.55;61.25;100084.19;6306966;22;20021;-91
2022/02/06 02:43:02;;;;;;;39.87;27.50;;;;;;;5.22;61.26;100041.63;6307747;22;20091;-91
2022/02/06 02:48:01;;;;;;;32.83;25.37;;;;;;;5.12;61.10;100038.13;6306339;22;19999;-91
2022/02/06 02:50:27;;;;;;;36.07;26.93;;;;;;;4.96;61.40;99990.66;6306435;22;19987;-91
2022/02/06 03:02:49;;;;;;;16.70;12.87;;;;;;;5.30;60.79;100054.91;6306333;22;20010;-92
2022/02/06 03:05:14;;;;;;;23.03;16.77;;;;;;;5.03;60.60;99989.19;6278685;22;20352;-90
2022/02/06 03:07:40;;;;;;;20.83;16.70;;;;;;;5.20;60.42;100016.53;6278379;22;20003;-91
2022/02/06 03:10:05;;;;;;;27.20;18.77;;;;;;;5.70;60.13;100107.28;6305899;22;20022;-92
2022/02/06 03:12:33;;;;;;;24.13;18.80;;;;;;;5.17;60.00;100007.16;6278429;22;20456;-91
2022/02/06 03:15:08;;;;;;;24.43;18.30;;;;;;;5.33;60.33;100059.03;6278703;22;20056;-92
2022/02/06 03:17:45;;;;;;;19.83;15.93;;;;;;;5.75;60.12;100105.09;6305927;22;20046;-91
2022/02/06 03:20:18;;;;;;;20.00;16.43;;;;;;;5.80;60.03;100156.25;6305640;22;20006;-92
2022/02/06 03:22:54;;;;;;;24.97;19.27;;;;;;;5.27;59.84;100055.16;6278775;22;20000;-92
2022/02/06 03:25:22;;;;;;;24.60;19.20;;;;;;;5.64;60.22;100120.91;6278543;22;20059;-92
2022/02/06 03:27:48;;;;;;;25.53;19.00;;;;;;;5.20;60.15;100032.22;6278481;22;20009;-91
2022/02/06 03:30:14;;;;;;;18.80;14.90;;;;;;;5.40;59.88;100094.22;6278487;22;20387;-91
2022/02/06 03:32:39;;;;;;;20.47;16.33;;;;;;;4.32;59.82;99905.41;6278460;22;20009;-91
2022/02/06 03:35:06;;;;;;;21.53;17.47;;;;;;;5.89;59.81;100153.72;6278726;22;20056;-90
2022/02/06 03:37:31;;;;;;;26.40;18.93;;;;;;;5.90;59.49;100154.53;6278403;22;20317;-92
2022/02/06 03:39:59;;;;;;;15.60;12.00;;;;;;;5.22;59.30;100053.91;6278715;22;20007;-91
2022/02/06 03:42:32;;;;;;;19.63;13.97;;;;;;;5.65;58.77;100106.84;6278824;22;19999;-92
2022/02/06 03:45:03;;;;;;;25.67;17.00;;;;;;;5.76;59.30;100134.75;6278543;22;19999;-92
2022/02/06 03:47:44;;;;;;;22.90;15.93;;;;;;;5.27;59.25;100049.94;6278655;22;20006;-92
2022/02/06 03:50:11;;;;;;;23.83;16.52;;;;;;;5.91;59.01;100200.75;6278689;22;19995;-91
2022/02/06 03:52:44;;;;;;;19.03;13.80;;;;;;;5.20;58.97;100072.34;6279060;22;20010;-92
2022/02/06 03:55:18;;;;;;;20.97;15.47;;;;;;;5.23;58.94;100068.66;6278865;22;20394;-91
2022/02/06 03:57:43;;;;;;;18.27;16.10;;;;;;;5.18;59.42;100069.00;6280854;22;20053;-92
2022/02/06 04:00:09;;;;;;;22.20;16.10;;;;;;;5.14;59.01;100032.75;6308406;22;20444;-91
2022/02/06 04:02:34;;;;;;;18.53;15.43;;;;;;;5.43;58.91;100109.66;6280802;22;20463;-92
2022/02/06 04:05:00;;;;;;;19.67;15.67;;;;;;;5.26;58.88;100068.38;6307727;22;20006;-92
2022/02/06 04:07:25;;;;;;;17.17;12.00;;;;;;;4.68;59.16;99992.19;6280957;22;20033;-91
2022/02/06 04:09:54;;;;;;;16.77;13.87;;;;;;;5.09;59.32;100086.31;6307731;22;19991;-92
2022/02/06 04:12:22;;;;;;;17.83;13.93;;;;;;;5.18;59.26;100115.28;6307686;22;20444;-91
2022/02/06 04:17:22;;;;;;;19.75;14.95;;;;;;;4.05;59.33;99962.59;6308392;22;20421;-92
2022/02/06 04:19:47;;;;;;;23.40;15.97;;;;;;;4.53;59.45;100025.69;6280130;22;20000;-92
2022/02/06 04:22:13;;;;;;;17.20;13.90;;;;;;;4.29;59.18;99978.84;6307893;22;19999;-91
2022/02/06 04:24:38;;;;;;;17.73;13.80;;;;;;;5.46;59.76;100192.38;6307461;22;20380;-90
2022/02/06 04:27:05;;;;;;;19.70;13.80;;;;;;;4.08;59.76;99968.38;6307062;22;20027;-90
2022/02/06 04:29:30;;;;;;;19.00;15.43;;;;;;;3.63;59.61;99910.25;6307030;22;19999;-89
2022/02/06 04:31:56;;;;;;;21.17;14.20;;;;;;;4.07;59.69;100024.22;6307561;22;19999;-89
2022/02/06 04:34:23;;;;;;;21.37;16.13;;;;;;;3.78;59.84;99965.66;6310908;22;20070;-86
2022/02/06 05:21:58;;;;;;;26.63;20.80;;;;;;;1.71;61.29;99787.19;6275574;22;20376;-87
2022/02/06 05:24:40;;;;;;;25.63;20.80;;;;;;;3.50;61.34;100092.34;6275349;22;19992;-84
2022/02/06 05:29:51;;;;;;;25.48;20.92;;;;;;;4.44;61.33;100272.19;6275370;22;20020;-87
2022/02/06 05:35:08;;;;;;;27.52;21.20;;;;;;;2.46;61.01;99980.31;6252083;22;20015;-86
2022/02/06 05:37:34;;;;;;;27.57;21.70;;;;;;;1.76;61.16;99868.38;6275353;22;19984;-83
2022/02/06 05:40:00;;;;;;;29.43;22.00;;;;;;;3.47;61.26;100170.88;6275096;22;19998;-85
2022/02/06 05:42:25;;;;;;;28.00;22.07;;;;;;;2.87;61.34;100076.25;6275051;22;20032;-86
2022/02/06 05:44:57;;;;;;;29.20;21.30;;;;;;;1.58;61.19;99860.16;6275146;22;19984;-85
2022/02/06 05:47:24;;;;;;;28.88;21.55;;;;;;;1.51;61.20;99856.34;6275224;22;19995;-83
2022/02/06 05:49:50;;;;;;;26.93;21.80;;;;;;;1.88;61.26;99918.69;6275412;22;19980;-86
2022/02/06 05:52:16;;;;;;;30.33;22.83;;;;;;;1.74;61.31;99904.09;6306158;22;19988;-87
2022/02/06 05:54:42;;;;;;;27.83;21.47;;;;;;;1.59;61.39;99880.03;6306113;22;19987;-84
2022/02/06 05:57:07;;;;;;;32.03;22.40;;;;;;;4.53;61.39;100368.25;6306201;22;20010;-85
2022/02/06 05:59:33;;;;;;;27.23;21.90;;;;;;;1.57;61.24;99870.69;6322355;22;20007;-83
2022/02/06 06:01:58;;;;;;;31.07;22.83;;;;;;;1.39;61.08;99845.97;6336991;22;20025;-86
2022/02/06 06:04:24;;;;;;;33.30;24.80;;;;;;;2.44;61.39;99970.97;6310441;22;19991;-85
2022/02/06 06:06:49;;;;;;;31.80;23.73;;;;;;;1.86;61.49;99929.22;6337147;22;19987;-85
2022/02/06 06:09:15;;;;;;;34.83;27.47;;;;;;;2.92;61.59;100060.25;6337094;22;19987;-84
2022/02/06 06:11:40;;;;;;;33.20;25.17;;;;;;;2.61;61.41;100040.06;6310456;22;19998;-86
2022/02/06 06:14:06;;;;;;;38.00;26.47;;;;;;;1.94;61.57;99928.66;6336687;22;20014;-83
2022/02/06 06:16:34;;;;;;;43.30;29.73;;;;;;;1.62;61.76;99824.31;6336774;22;19987;-84
2022/02/06 06:19:01;;;;;;;40.90;29.63;;;;;;;2.16;61.44;99920.91;6336727;22;19987;-84
2022/02/06 06:21:29;;;;;;;40.10;30.27;;;;;;;2.61;61.55;100035.69;6310505;22;19987;-85
2022/02/06 06:23:56;;;;;;;41.50;30.83;;;;;;;1.58;61.49;99856.72;6310554;22;20006;-87
2022/02/06 06:26:24;;;;;;;43.63;30.70;;;;;;;1.91;61.29;99861.19;6336921;22;19983;-87
2022/02/06 06:28:49;;;;;;;41.53;31.13;;;;;;;2.47;61.27;99957.69;6336813;22;20034;-87
2022/02/06 06:31:15;;;;;;;42.57;32.40;;;;;;;1.90;61.13;99911.59;6309932;22;19987;-87
2022/02/06 06:33:40;;;;;;;51.17;36.57;;;;;;;2.61;61.27;100042.66;6310316;22;19987;-86
2022/02/06 06:36:06;;;;;;;61.10;43.33;;;;;;;2.62;61.50;100042.56;6336704;22;20078;-85
2022/02/06 06:38:35;;;;;;;80.90;54.40;;;;;;;4.92;61.31;100379.13;6310073;22;20007;-89
2022/02/06 06:41:02;;;;;;;88.53;60.67;;;;;;;2.26;61.01;99941.09;6336543;22;20066;-87
2022/02/06 06:43:28;;;;;;;104.07;69.57;;;;;;;2.45;61.06;99959.59;6310268;22;20000;-86
2022/02/06 06:45:53;;;;;;;97.03;67.43;;;;;;;2.36;61.07;99910.78;6335579;22;20007;-88
2022/02/06 06:48:19;;;;;;;91.67;62.07;;;;;;;2.42;61.20;99942.41;6309598;22;19992;-86
2022/02/06 06:50:44;;;;;;;97.37;63.70;;;;;;;2.85;61.07;100038.19;6335380;22;20019;-88
2022/02/06 06:53:11;;;;;;;111.53;76.50;;;;;;;3.50;61.08;100063.63;6302501;22;20052;-87
2022/02/06 06:55:39;;;;;;;101.23;72.97;;;;;;;3.76;61.09;100098.97;6323803;22;20006;-87
2022/02/06 06:58:28;;;;;;;103.83;73.83;;;;;;;4.25;61.37;100222.31;6321220;22;19995;-88
2022/02/06 07:03:42;;;;;;;126.60;87.43;;;;;;;3.89;60.75;100139.81;6302365;22;20010;-88
2022/02/06 07:06:07;;;;;;;140.00;100.70;;;;;;;4.20;60.98;100165.16;6309297;22;19995;-89
2022/02/06 07:08:32;;;;;;;130.00;95.07;;;;;;;4.51;60.81;100222.88;6279728;22;20008;-88
2022/02/06 07:10:58;;;;;;;131.30;93.83;;;;;;;4.42;60.58;100175.56;6306260;22;19995;-90
2022/02/06 07:13:23;;;;;;;130.97;95.03;;;;;;;4.26;60.73;100146.38;6279183;22;20129;-90
2022/02/06 07:15:51;;;;;;;151.23;107.57;;;;;;;5.70;60.37;100355.34;6278788;22;20006;-91
2022/02/06 07:18:19;;;;;;;135.07;93.60;;;;;;;5.68;60.57;100365.94;6279039;22;19999;-89
2022/02/06 07:20:45;;;;;;;142.40;100.33;;;;;;;5.90;60.67;100370.28;6278706;22;20015;-90
2022/02/06 07:23:10;;;;;;;131.20;93.10;;;;;;;5.97;60.52;100368.81;6278681;22;20003;-90
2022/02/06 07:25:38;;;;;;;132.10;95.10;;;;;;;5.13;60.35;100236.09;6305349;22;20377;-90
2022/02/06 07:28:07;;;;;;;108.13;75.87;;;;;;;5.75;60.35;100306.00;6278078;22;20356;-90
2022/02/06 07:30:32;;;;;;;115.93;80.87;;;;;;;6.19;60.26;100369.66;6277969;22;20448;-90
2022/02/06 07:32:57;;;;;;;82.13;57.73;;;;;;;6.06;60.38;100343.63;6280094;22;20010;-90
2022/02/06 07:35:23;;;;;;;76.93;54.37;;;;;;;6.05;59.98;100348.03;6307015;22;20009;-90
2022/02/06 07:37:55;;;;;;;67.57;48.27;;;;;;;5.88;59.91;100282.22;6280109;22;20010;-90
2022/02/06 07:40:21;;;;;;;64.10;47.87;;;;;;;6.40;59.91;100367.81;6279767;22;20003;-90
2022/02/06 07:42:47;;;;;;;52.20;38.93;;;;;;;5.24;59.61;100169.78;6279585;22;20003;-90
2022/02/06 07:45:13;;;;;;;42.97;33.67;;;;;;;6.15;59.63;100286.97;6306826;22;20213;-89
2022/02/06 07:47:42;;;;;;;36.23;28.97;;;;;;;6.73;59.54;100371.97;6279729;22;19999;-90
2022/02/06 07:50:08;;;;;;;34.17;27.70;;;;;;;6.12;59.20;100281.97;6279503;22;19991;-90
2022/02/06 07:52:34;;;;;;;35.73;27.00;;;;;;;6.88;59.46;100375.91;6306704;22;20086;-91
2022/02/06 07:55:00;;;;;;;35.47;26.50;;;;;;;6.40;58.72;100283.06;6306742;22;20063;-88
2022/02/06 07:57:26;;;;;;;31.57;24.23;;;;;;;6.80;58.87;100374.91;6306849;22;20051;-89
2022/02/06 07:59:51;;;;;;;33.23;24.80;;;;;;;6.77;59.05;100338.44;6279073;22;20038;-90
2022/02/06 08:02:18;;;;;;;30.40;24.70;;;;;;;6.89;58.68;100359.19;6279362;22;20003;-90
2022/02/06 08:04:46;;;;;;;28.83;22.83;;;;;;;6.83;58.73;100343.13;6306522;22;20003;-89
2022/02/06 08:07:12;;;;;;;29.00;23.47;;;;;;;6.20;58.68;100225.31;6307223;22;20019;-90
2022/02/06 08:12:05;;;;;;;29.03;21.80;;;;;;;7.32;58.56;100371.13;6307019;22;20352;-90
2022/02/06 08:14:52;;;;;;;22.77;17.00;;;;;;;7.26;58.26;100356.75;6306575;22;19995;-90
2022/02/06 08:17:25;;;;;;;22.03;15.07;;;;;;;7.00;57.86;100311.81;6306601;22;20078;-90
2022/02/06 08:19:51;;;;;;;15.83;13.03;;;;;;;7.16;57.63;100339.31;6279111;22;20018;-90
2022/02/06 08:22:17;;;;;;;14.13;11.23;;;;;;;6.98;57.43;100313.75;6278953;22;20003;-90
2022/02/06 08:24:43;;;;;;;15.83;13.10;;;;;;;7.52;57.29;100382.53;6306526;22;20356;-91
2022/02/06 08:27:09;;;;;;;15.57;12.97;;;;;;;7.30;57.22;100341.56;6279771;22;20487;-91
2022/02/06 08:29:37;;;;;;;17.93;14.10;;;;;;;7.31;57.18;100336.16;6306920;22;20019;-91
2022/02/06 08:32:05;;;;;;;16.80;13.40;;;;;;;7.59;57.30;100381.84;6279490;22;20006;-91
2022/02/06 08:34:31;;;;;;;17.20;14.27;;;;;;;7.15;57.30;100295.66;6279491;22;19999;-92
2022/02/06 08:36:56;;;;;;;12.90;11.07;;;;;;;7.47;56.86;100361.91;6306835;22;20000;-91
2022/02/06 08:39:21;;;;;;;13.82;12.13;;;;;;;7.47;56.62;100372.41;6306791;22;20458;-91
2022/02/06 08:41:47;;;;;;;14.70;10.33;;;;;;;7.64;56.37;100355.97;6279135;22;19999;-91
2022/02/06 08:44:12;;;;;;;15.60;11.67;;;;;;;7.40;55.96;100308.22;6278791;22;19995;-91
2022/02/06 08:46:37;;;;;;;12.82;10.35;;;;;;;6.99;55.47;100220.06;6279000;22;20003;-90
2022/02/06 08:49:03;;;;;;;11.13;9.90;;;;;;;8.07;55.41;100380.13;6306314;22;20395;-91
2022/02/06 08:51:28;;;;;;;11.67;9.60;;;;;;;7.07;55.21;100214.94;6278815;22;20450;-91
2022/02/06 08:53:54;;;;;;;12.47;9.13;;;;;;;7.31;54.73;100238.13;6278982;22;19991;-91
2022/02/06 08:56:20;;;;;;;13.82;9.45;;;;;;;8.29;55.00;100378.00;6279226;22;20022;-91
2022/02/06 08:58:46;;;;;;;13.02;10.48;;;;;;;7.64;54.10;100274.50;6279411;22;20464;-91
2022/02/06 09:01:12;;;;;;;10.35;8.90;;;;;;;8.18;54.01;100370.28;6306184;22;20006;-90
2022/02/06 09:03:37;;;;;;;12.68;9.23;;;;;;;8.47;53.37;100399.19;6306058;22;20444;-91
2022/02/06 09:06:03;;;;;;;12.25;8.60;;;;;;;7.89;53.22;100278.31;6306118;22;20007;-91
2022/02/06 09:08:29;;;;;;;12.10;8.52;;;;;;;8.28;53.24;100359.75;6278848;22;19995;-90
2022/02/06 09:10:54;;;;;;;13.00;9.10;;;;;;;8.40;53.09;100344.63;6305925;22;20010;-91
2022/02/06 09:13:20;;;;;;;19.92;15.05;;;;;;;8.46;54.06;100339.63;6306098;22;19999;-91
2022/02/06 09:15:45;;;;;;;26.40;21.58;;;;;;;8.55;53.97;100330.03;6278623;22;20448;-90
2022/02/06 09:18:11;;;;;;;18.70;16.45;;;;;;;8.68;54.71;100330.53;6306291;22;19995;-91
2022/02/06 09:20:36;;;;;;;19.83;16.45;;;;;;;8.96;54.50;100385.84;6306021;22;20360;-91
2022/02/06 09:23:03;;;;;;;14.55;12.13;;;;;;;8.70;54.61;100322.47;6278563;22;20010;-91
2022/02/06 09:25:28;;;;;;;18.63;14.30;;;;;;;8.84;54.78;100350.94;6305797;22;20053;-88
2022/02/06 09:27:54;;;;;;;19.40;15.73;;;;;;;8.58;54.76;100283.19;6305831;22;20001;-91
2022/02/06 09:30:25;;;;;;;20.70;16.77;;;;;;;8.58;54.56;100266.56;6305876;22;20025;-90
2022/02/06 09:35:17;;;;;;;19.33;15.85;;;;;;;9.41;54.77;100362.94;6306255;22;20006;-91
2022/02/06 09:37:42;;;;;;;19.08;16.80;;;;;;;9.09;54.22;100297.59;6306040;22;20003;-91
2022/02/06 09:40:11;;;;;;;21.48;15.45;;;;;;;9.62;54.08;100351.25;6305801;22;20000;-90
2022/02/06 09:42:38;;;;;;;16.50;14.55;;;;;;;9.51;53.64;100332.06;6305651;22;20010;-91
2022/02/06 09:45:05;;;;;;;19.02;15.45;;;;;;;9.34;53.57;100271.44;6278476;22;20056;-90
2022/02/06 09:47:31;;;;;;;17.95;14.73;;;;;;;9.52;53.71;100301.25;6306062;22;20048;-91
2022/02/06 09:49:57;;;;;;;18.98;14.93;;;;;;;9.66;53.51;100308.63;6306067;22;20061;-89
2022/02/06 09:52:28;;;;;;;20.13;16.08;;;;;;;9.34;53.33;100250.38;6306258;22;20383;-91
2022/02/06 09:55:08;;;;;;;15.13;9.85;;;;;;;9.55;53.25;100307.03;6276938;22;20015;-90
2022/02/06 09:57:51;;;;;;;23.70;15.07;;;;;;;9.89;52.98;100332.69;6278587;22;20577;-90
2022/02/06 10:00:18;;;;;;;15.13;12.30;;;;;;;9.73;53.02;100295.66;6305842;22;20003;-90
2022/02/06 10:02:47;;;;;;;19.73;13.77;;;;;;;9.98;52.51;100326.50;6305900;22;19996;-91
2022/02/06 10:05:15;;;;;;;18.63;14.57;;;;;;;9.70;52.45;100282.78;6305625;22;20485;-90
2022/02/06 10:07:45;;;;;;;16.80;13.32;;;;;;;9.52;52.21;100220.34;6278075;22;19999;-90
2022/02/06 10:10:13;;;;;;;21.42;17.50;;;;;;;10.27;51.73;100320.09;6278134;22;20057;-90
2022/02/06 10:12:44;;;;;;;18.08;12.80;;;;;;;10.03;51.51;100271.47;6305748;22;20002;-90
2022/02/06 10:15:12;;;;;;;14.65;12.50;;;;;;;10.12;50.97;100259.97;6305479;22;20002;-90
2022/02/06 10:17:37;;;;;;;18.58;12.70;;;;;;;10.11;50.81;100255.66;6278425;22;19999;-90
2022/02/06 10:20:12;;;;;;;16.48;13.20;;;;;;;9.86;50.90;100196.69;6278838;22;20034;-90
2022/02/06 10:22:43;;;;;;;14.25;12.23;;;;;;;10.63;50.84;100321.63;6278856;22;20329;-90
2022/02/06 10:25:10;;;;;;;15.82;12.43;;;;;;;10.40;50.60;100271.19;6306251;22;20052;-90
2022/02/06 10:28:09;;;;;;;16.38;13.00;;;;;;;10.74;50.40;100299.38;6306036;22;20097;-90
2022/02/06 10:30:39;;;;;;;17.35;12.63;;;;;;;10.04;50.47;100201.88;6278287;22;19999;-90
2022/02/06 10:33:15;;;;;;;12.75;11.38;;;;;;;10.56;50.09;100272.25;6278310;22;20006;-90
2022/02/06 10:35:43;;;;;;;12.32;10.95;;;;;;;9.80;49.79;100122.66;6278587;22;20011;-90
2022/02/06 10:38:20;;;;;;;15.45;12.55;;;;;;;10.75;49.30;100251.66;6305876;22;19999;-90
2022/02/06 10:41:05;;;;;;;14.48;12.82;;;;;;;10.99;49.29;100281.75;6306152;22;20003;-89
2022/02/06 10:43:30;;;;;;;10.63;9.18;;;;;;;11.00;49.04;100272.84;6306423;22;20006;-90
2022/02/06 10:46:11;;;;;;;14.85;11.75;;;;;;;10.87;48.58;100249.53;6306665;22;19999;-90
2022/02/06 10:48:54;;;;;;;22.85;18.70;;;;;;;10.81;48.77;100214.03;6316464;22;20023;-89
2022/02/06 10:51:40;;;;;;;15.00;12.73;;;;;;;11.09;48.76;100264.75;6335966;22;19987;-89
2022/02/06 10:54:08;;;;;;;15.23;12.85;;;;;;;11.08;48.93;100246.44;6335346;22;19999;-89
2022/02/06 10:56:36;;;;;;;12.93;10.70;;;;;;;11.22;48.31;100255.53;6312941;22;20006;-90
2022/02/06 10:59:06;;;;;;;11.95;10.15;;;;;;;10.67;47.97;100164.50;6282746;22;20055;-90
2022/02/06 11:01:32;;;;;;;18.17;12.10;;;;;;;10.34;47.55;100107.31;6279190;22;20065;-89
2022/02/06 11:04:24;;;;;;;12.50;9.63;;;;;;;11.11;47.97;100214.38;6304826;22;20007;-89
2022/02/06 11:07:05;;;;;;;14.55;9.65;;;;;;;11.07;47.05;100202.50;6277203;22;20029;-90
2022/02/06 11:09:31;;;;;;;9.57;7.78;;;;;;;10.74;46.95;100125.88;6304886;22;20440;-89
2022/02/06 11:12:01;;;;;;;10.93;9.18;;;;;;;11.15;46.54;100186.66;6304816;22;20145;-90
2022/02/06 11:14:29;;;;;;;12.18;9.32;;;;;;;11.20;46.46;100202.03;6277669;22;20094;-89
2022/02/06 11:16:56;;;;;;;13.35;10.55;;;;;;;11.04;46.28;100164.00;6304978;22;20036;-89
2022/02/06 11:19:21;;;;;;;12.63;10.63;;;;;;;10.95;46.78;100164.19;6305209;22;19999;-90
2022/02/06 11:22:07;;;;;;;14.07;10.48;;;;;;;11.35;46.80;100219.69;6277806;22;20022;-90
2022/02/06 11:24:37;;;;;;;11.60;9.80;;;;;;;11.33;46.53;100215.56;6277873;22;20003;-89
2022/02/06 11:27:07;;;;;;;15.20;10.57;;;;;;;11.12;46.87;100182.50;6277851;22;20448;-90
2022/02/06 11:29:33;;;;;;;14.00;11.00;;;;;;;11.08;47.11;100175.91;6305457;22;20436;-89
2022/02/06 11:31:58;;;;;;;14.52;11.07;;;;;;;10.81;46.93;100133.97;6278053;22;20006;-90
2022/02/06 11:34:25;;;;;;;9.27;8.27;;;;;;;10.94;46.85;100159.88;6305181;22;20006;-89
2022/02/06 11:46:16;;;;;;;9.90;8.10;;;;;;;11.18;47.43;100193.44;6305361;22;20007;-89
2022/02/06 11:48:43;;;;;;;12.85;9.40;;;;;;;11.04;47.17;100163.19;6277578;22;20030;-90
2022/02/06 11:51:10;;;;;;;11.18;8.63;;;;;;;10.85;46.90;100166.16;6304869;22;20037;-90
2022/02/06 11:53:39;;;;;;;12.10;10.57;;;;;;;10.73;46.72;100105.72;6304719;22;19998;-90
2022/02/06 11:56:35;;;;;;;10.57;7.55;;;;;;;11.14;46.63;100180.53;6277336;22;20010;-89
2022/02/06 11:59:12;;;;;;;11.30;9.13;;;;;;;11.14;47.23;100171.75;6290400;22;20003;-89
2022/02/06 12:01:39;;;;;;;10.45;7.75;;;;;;;10.18;47.14;100013.91;6304645;22;20007;-89
2022/02/06 12:04:10;;;;;;;13.35;8.23;;;;;;;11.15;47.21;100165.53;6277193;22;20006;-89
2022/02/06 12:06:48;;;;;;;9.93;6.95;;;;;;;11.13;46.72;100156.91;6304547;22;20447;-89
2022/02/06 12:09:17;;;;;;;9.85;6.70;;;;;;;11.14;46.02;100150.63;6304926;22;20003;-90
2022/02/06 12:12:05;;;;;;;9.88;8.00;;;;;;;11.14;46.66;100145.34;6304821;22;20003;-89
2022/02/06 12:14:45;;;;;;;14.52;8.30;;;;;;;10.89;45.76;100104.91;6277418;22;19995;-90
2022/02/06 12:17:24;;;;;;;9.32;6.53;;;;;;;11.13;46.45;100138.41;6277954;22;20428;-89
2022/02/06 12:20:10;;;;;;;10.70;7.72;;;;;;;10.73;45.98;100067.94;6279707;22;20007;-89
2022/02/06 12:22:39;;;;;;;10.23;7.40;;;;;;;11.14;46.05;100125.03;6306991;22;20352;-89
2022/02/06 12:25:34;;;;;;;8.77;6.88;;;;;;;10.41;45.55;100019.44;6306682;22;20025;-88
2022/02/06 12:28:19;;;;;;;8.07;6.20;;;;;;;11.16;45.50;100124.06;6306558;22;19999;-88
2022/02/06 12:30:47;;;;;;;12.48;8.93;;;;;;;11.18;45.62;100122.91;6306906;22;20071;-88
2022/02/06 12:33:32;;;;;;;9.43;7.22;;;;;;;10.60;46.06;100028.81;6306749;22;20074;-88
2022/02/06 12:38:44;;;;;;;8.88;6.50;;;;;;;10.69;45.68;100016.44;6306494;22;20403;-89
2022/02/06 12:41:24;;;;;;;11.45;5.78;;;;;;;10.60;46.11;100001.59;6306362;22;19999;-88
2022/02/06 12:43:56;;;;;;;11.25;6.93;;;;;;;10.70;45.68;100012.81;6279136;22;19999;-88
2022/02/06 12:46:26;;;;;;;13.07;8.82;;;;;;;11.25;45.91;100093.97;6306441;22;20145;-87
2022/02/06 12:48:57;;;;;;;10.80;7.93;;;;;;;10.54;45.17;99970.59;6306295;22;19999;-88
2022/02/06 12:51:35;;;;;;;16.33;10.07;;;;;;;11.01;45.73;100052.53;6278638;22;19996;-88
2022/02/06 12:54:05;;;;;;;15.80;10.95;;;;;;;11.33;45.19;100100.06;6278703;22;20430;-88
2022/02/06 12:56:32;;;;;;;13.13;9.77;;;;;;;10.64;45.73;99995.81;6278651;22;20007;-88
2022/02/06 12:58:59;;;;;;;11.80;7.47;;;;;;;11.09;45.32;100042.78;6278741;22;19995;-88
2022/02/06 13:01:43;;;;;;;13.45;8.20;;;;;;;11.14;45.28;100050.19;6275876;22;20007;-87
2022/02/06 13:04:14;;;;;;;8.20;6.90;;;;;;;10.62;45.05;99967.94;6278475;22;20456;-88
2022/02/06 13:06:45;;;;;;;10.43;8.27;;;;;;;10.91;45.07;99994.59;6304512;22;19999;-88
2022/02/06 13:09:31;;;;;;;14.48;8.07;;;;;;;11.43;45.17;100082.19;6304828;22;19995;-88
2022/02/06 13:12:10;;;;;;;7.80;7.00;;;;;;;11.43;45.09;100082.19;6278764;22;20057;-88
2022/02/06 13:28:31;;;;;;;14.15;9.02;;;;;;;11.09;44.84;100004.94;6306314;22;20050;-88
2022/02/06 13:38:41;;;;;;;9.40;6.82;;;;;;;10.95;43.87;99944.88;6305380;22;20010;-88
2022/02/06 13:41:18;;;;;;;8.25;5.88;;;;;;;11.62;44.07;100057.16;6278061;22;20358;-88
2022/02/06 13:43:44;;;;;;;9.60;7.43;;;;;;;11.11;43.66;99963.31;6277791;22;19999;-88
2022/02/06 13:46:18;;;;;;;8.18;5.68;;;;;;;11.56;43.06;100041.97;6278313;22;20023;-88
2022/02/06 13:48:48;;;;;;;12.57;9.05;;;;;;;11.46;42.50;100023.69;6305688;22;20007;-88
2022/02/06 13:51:15;;;;;;;12.07;8.60;;;;;;;11.15;42.72;99935.59;6278325;22;20002;-87
2022/02/06 13:53:53;;;;;;;9.50;5.63;;;;;;;11.11;42.62;99963.31;6277985;22;20006;-87
2022/02/06 13:56:18;;;;;;;8.25;6.60;;;;;;;11.06;42.66;99926.03;6277877;22;20027;-89
2022/02/06 13:58:56;;;;;;;8.50;6.82;;;;;;;11.79;42.67;100039.41;6277835;22;19995;-88
2022/02/06 14:01:22;;;;;;;11.82;8.23;;;;;;;11.28;43.01;99962.28;6278076;22;20033;-88
2022/02/06 14:03:50;;;;;;;8.40;7.03;;;;;;;11.57;42.60;99988.09;6277896;22;20019;-88
2022/02/06 14:06:23;;;;;;;8.45;6.22;;;;;;;11.87;42.12;100023.50;6277680;22;20000;-88
2022/02/06 14:09:25;;;;;;;8.00;6.22;;;;;;;11.89;42.62;100024.19;6277843;22;20077;-88
2022/02/06 14:11:56;;;;;;;9.07;7.00;;;;;;;11.88;42.52;100019.03;6277888;22;19995;-87
2022/02/06 14:14:23;;;;;;;13.10;8.85;;;;;;;11.88;42.55;100011.91;6305073;22;20458;-88
2022/02/06 14:16:51;;;;;;;12.45;7.82;;;;;;;11.72;42.77;99982.88;6305223;22;20405;-88
2022/02/06 14:19:38;;;;;;;11.27;8.40;;;;;;;11.97;42.80;99999.47;6305152;22;20056;-88
2022/02/06 14:22:04;;;;;;;18.08;10.98;;;;;;;11.77;42.74;99978.75;6277828;22;20003;-88
2022/02/06 14:24:29;;;;;;;13.45;8.50;;;;;;;11.92;42.66;99978.84;6277862;22;19999;-87
2022/02/06 14:27:05;;;;;;;11.48;8.23;;;;;;;11.63;42.82;99921.28;6305439;22;20349;-87